sensor_id;sensor_type;location;lat;lon;timestamp;P1;durP1;ratioP1;P2;durP2;ratioP2
5303;SDS011;2674;49.722;10.892;2022-08-19T00:01:44;26.60;;;22.83;;
5303;SDS011;2674;49.722;10.892;2022-08-19T00:04:12;26.50;;;22.40;;
5303;SDS011;2674;49.722;10.892;2022-08-19T00:06:42;24.87;;;22.17;;
5303;SDS011;2674;49.722;10.892;2022-08-19T00:09:10;27.27;;;23.67;;
5303;SDS011;2674;49.722;10.892;2022-08-19T00:11:38;26.87;;;23.97;;
5303;SDS011;2674;49.722;10.892;2022-08-19T00:14:05;28.67;;;22.87;;
5303;SDS011;2674;49.722;10.892;2022-08-19T00:16:33;28.77;;;24.00;;
5303;SDS011;2674;49.722;10.892;2022-08-19T00:18:59;27.20;;;24.37;;
5303;SDS011;2674;49.722;10.892;2022-08-19T00:21:25;25.70;;;22.90;;
5303;SDS011;2674;49.722;10.892;2022-08-19T00:23:52;32.87;;;24.87;;
5303;SDS011;2674;49.722;10.892;2022-08-19T00:26:19;33.93;;;23.83;;
5303;SDS011;2674;49.722;10.892;2022-08-19T00:28:45;31.73;;;25.90;;
5303;SDS011;2674;49.722;10.892;2022-08-19T00:31:12;34.03;;;26.50;;
5303;SDS011;2674;49.722;10.892;2022-08-19T00:33:38;29.67;;;25.60;;
5303;SDS011;2674;49.722;10.892;2022-08-19T00:36:05;33.73;;;25.43;;
5303;SDS011;2674;49.722;10.892;2022-08-19T00:38:32;31.63;;;25.00;;
5303;SDS011;2674;49.722;10.892;2022-08-19T00:40:59;31.27;;;25.90;;
5303;SDS011;2674;49.722;10.892;2022-08-19T00:43:26;35.57;;;26.63;;
5303;SDS011;2674;49.722;10.892;2022-08-19T00:45:53;33.20;;;27.83;;
5303;SDS011;2674;49.722;10.892;2022-08-19T00:48:19;36.67;;;29.10;;
5303;SDS011;2674;49.722;10.892;2022-08-19T00:50:47;37.03;;;28.63;;
5303;SDS011;2674;49.722;10.892;2022-08-19T00:53:16;36.87;;;28.27;;
5303;SDS011;2674;49.722;10.892;2022-08-19T00:55:46;37.70;;;29.73;;
5303;SDS011;2674;49.722;10.892;2022-08-19T00:58:15;37.60;;;27.03;;
5303;SDS011;2674;49.722;10.892;2022-08-19T01:00:44;42.13;;;30.63;;
5303;SDS011;2674;49.722;10.892;2022-08-19T01:03:13;34.70;;;27.27;;
5303;SDS011;2674;49.722;10.892;2022-08-19T01:05:42;34.20;;;29.30;;
5303;SDS011;2674;49.722;10.892;2022-08-19T01:08:10;38.83;;;28.57;;
5303;SDS011;2674;49.722;10.892;2022-08-19T01:10:39;32.50;;;26.53;;
5303;SDS011;2674;49.722;10.892;2022-08-19T01:13:34;38.77;;;27.57;;
5303;SDS011;2674;49.722;10.892;2022-08-19T01:16:06;36.70;;;28.87;;
5303;SDS011;2674;49.722;10.892;2022-08-19T01:18:39;36.60;;;28.07;;
5303;SDS011;2674;49.722;10.892;2022-08-19T01:21:53;37.50;;;28.17;;
5303;SDS011;2674;49.722;10.892;2022-08-19T01:24:11;32.13;;;27.53;;
5303;SDS011;2674;49.722;10.892;2022-08-19T01:26:42;37.27;;;29.53;;
5303;SDS011;2674;49.722;10.892;2022-08-19T01:29:09;33.63;;;26.97;;
5303;SDS011;2674;49.722;10.892;2022-08-19T01:31:35;35.53;;;28.83;;
5303;SDS011;2674;49.722;10.892;2022-08-19T01:34:03;37.17;;;29.07;;
5303;SDS011;2674;49.722;10.892;2022-08-19T01:38:57;42.57;;;32.20;;
5303;SDS011;2674;49.722;10.892;2022-08-19T01:41:24;43.53;;;31.87;;
5303;SDS011;2674;49.722;10.892;2022-08-19T01:43:51;39.10;;;30.27;;
5303;SDS011;2674;49.722;10.892;2022-08-19T01:46:19;40.13;;;30.10;;
5303;SDS011;2674;49.722;10.892;2022-08-19T01:48:46;43.10;;;30.77;;
5303;SDS011;2674;49.722;10.892;2022-08-19T01:51:12;42.27;;;31.03;;
5303;SDS011;2674;49.722;10.892;2022-08-19T01:53:38;44.20;;;32.57;;
5303;SDS011;2674;49.722;10.892;2022-08-19T01:56:05;40.73;;;31.17;;
5303;SDS011;2674;49.722;10.892;2022-08-19T01:58:35;68.13;;;32.60;;
5303;SDS011;2674;49.722;10.892;2022-08-19T02:01:05;41.83;;;31.13;;
5303;SDS011;2674;49.722;10.892;2022-08-19T02:03:32;43.77;;;33.93;;
5303;SDS011;2674;49.722;10.892;2022-08-19T02:06:00;40.97;;;31.93;;
5303;SDS011;2674;49.722;10.892;2022-08-19T02:08:28;42.70;;;33.50;;
5303;SDS011;2674;49.722;10.892;2022-08-19T02:10:55;47.60;;;33.27;;
5303;SDS011;2674;49.722;10.892;2022-08-19T02:13:22;45.27;;;33.00;;
5303;SDS011;2674;49.722;10.892;2022-08-19T02:15:49;46.50;;;34.80;;
5303;SDS011;2674;49.722;10.892;2022-08-19T02:18:15;45.13;;;32.90;;
5303;SDS011;2674;49.722;10.892;2022-08-19T02:20:41;43.27;;;32.77;;
5303;SDS011;2674;49.722;10.892;2022-08-19T02:23:08;45.43;;;31.80;;
5303;SDS011;2674;49.722;10.892;2022-08-19T02:25:35;42.87;;;32.97;;
5303;SDS011;2674;49.722;10.892;2022-08-19T02:28:01;48.70;;;35.10;;
5303;SDS011;2674;49.722;10.892;2022-08-19T02:30:27;48.60;;;34.40;;
5303;SDS011;2674;49.722;10.892;2022-08-19T02:32:53;42.70;;;32.40;;
5303;SDS011;2674;49.722;10.892;2022-08-19T02:35:19;44.20;;;33.10;;
5303;SDS011;2674;49.722;10.892;2022-08-19T02:37:45;44.47;;;32.93;;
5303;SDS011;2674;49.722;10.892;2022-08-19T02:40:31;48.47;;;32.73;;
5303;SDS011;2674;49.722;10.892;2022-08-19T02:43:04;44.60;;;33.07;;
5303;SDS011;2674;49.722;10.892;2022-08-19T02:45:36;46.40;;;32.37;;
5303;SDS011;2674;49.722;10.892;2022-08-19T02:48:03;49.60;;;32.07;;
5303;SDS011;2674;49.722;10.892;2022-08-19T02:50:30;42.57;;;31.60;;
5303;SDS011;2674;49.722;10.892;2022-08-19T02:52:56;45.07;;;32.97;;
5303;SDS011;2674;49.722;10.892;2022-08-19T02:55:22;42.60;;;31.20;;
5303;SDS011;2674;49.722;10.892;2022-08-19T02:57:48;41.30;;;30.60;;
5303;SDS011;2674;49.722;10.892;2022-08-19T03:00:14;42.67;;;32.10;;
5303;SDS011;2674;49.722;10.892;2022-08-19T03:02:41;46.70;;;31.80;;
5303;SDS011;2674;49.722;10.892;2022-08-19T03:05:07;45.10;;;31.30;;
5303;SDS011;2674;49.722;10.892;2022-08-19T03:07:35;45.10;;;32.50;;
5303;SDS011;2674;49.722;10.892;2022-08-19T03:10:02;42.47;;;31.67;;
5303;SDS011;2674;49.722;10.892;2022-08-19T03:12:29;40.57;;;30.87;;
5303;SDS011;2674;49.722;10.892;2022-08-19T03:14:55;45.50;;;32.30;;
5303;SDS011;2674;49.722;10.892;2022-08-19T03:17:21;41.97;;;30.50;;
5303;SDS011;2674;49.722;10.892;2022-08-19T03:19:47;42.43;;;32.10;;
5303;SDS011;2674;49.722;10.892;2022-08-19T03:22:13;43.33;;;31.20;;
5303;SDS011;2674;49.722;10.892;2022-08-19T03:24:39;38.90;;;32.77;;
5303;SDS011;2674;49.722;10.892;2022-08-19T03:27:05;39.47;;;29.47;;
5303;SDS011;2674;49.722;10.892;2022-08-19T03:29:31;42.53;;;31.50;;
5303;SDS011;2674;49.722;10.892;2022-08-19T03:31:58;43.67;;;31.00;;
5303;SDS011;2674;49.722;10.892;2022-08-19T03:34:27;42.93;;;31.27;;
5303;SDS011;2674;49.722;10.892;2022-08-19T03:36:57;40.90;;;30.53;;
5303;SDS011;2674;49.722;10.892;2022-08-19T03:39:25;45.23;;;30.97;;
5303;SDS011;2674;49.722;10.892;2022-08-19T03:41:53;42.40;;;31.27;;
5303;SDS011;2674;49.722;10.892;2022-08-19T03:44:22;37.77;;;29.10;;
5303;SDS011;2674;49.722;10.892;2022-08-19T03:46:48;43.43;;;31.27;;
5303;SDS011;2674;49.722;10.892;2022-08-19T03:49:17;41.23;;;31.53;;
5303;SDS011;2674;49.722;10.892;2022-08-19T03:51:44;47.30;;;33.20;;
5303;SDS011;2674;49.722;10.892;2022-08-19T03:54:12;43.70;;;32.53;;
5303;SDS011;2674;49.722;10.892;2022-08-19T03:56:40;41.37;;;30.70;;
5303;SDS011;2674;49.722;10.892;2022-08-19T03:59:09;42.53;;;30.40;;
5303;SDS011;2674;49.722;10.892;2022-08-19T04:01:38;47.63;;;32.10;;
5303;SDS011;2674;49.722;10.892;2022-08-19T04:04:04;45.70;;;31.27;;
5303;SDS011;2674;49.722;10.892;2022-08-19T04:06:31;48.93;;;32.63;;
5303;SDS011;2674;49.722;10.892;2022-08-19T04:09:00;45.07;;;31.97;;
5303;SDS011;2674;49.722;10.892;2022-08-19T04:11:29;47.17;;;33.00;;
5303;SDS011;2674;49.722;10.892;2022-08-19T04:13:59;45.33;;;33.50;;
5303;SDS011;2674;49.722;10.892;2022-08-19T04:16:27;42.10;;;32.33;;
5303;SDS011;2674;49.722;10.892;2022-08-19T04:18:56;53.40;;;32.17;;
5303;SDS011;2674;49.722;10.892;2022-08-19T04:21:26;43.43;;;30.90;;
5303;SDS011;2674;49.722;10.892;2022-08-19T04:23:53;43.23;;;30.10;;
5303;SDS011;2674;49.722;10.892;2022-08-19T04:26:29;41.67;;;30.80;;
5303;SDS011;2674;49.722;10.892;2022-08-19T04:28:57;42.73;;;30.37;;
5303;SDS011;2674;49.722;10.892;2022-08-19T04:31:30;45.73;;;30.93;;
5303;SDS011;2674;49.722;10.892;2022-08-19T04:34:01;45.60;;;31.63;;
5303;SDS011;2674;49.722;10.892;2022-08-19T04:36:32;49.30;;;32.13;;
5303;SDS011;2674;49.722;10.892;2022-08-19T04:39:23;49.83;;;33.77;;
5303;SDS011;2674;49.722;10.892;2022-08-19T04:42:08;43.90;;;32.80;;
5303;SDS011;2674;49.722;10.892;2022-08-19T04:44:52;49.87;;;33.30;;
5303;SDS011;2674;49.722;10.892;2022-08-19T04:47:19;44.90;;;32.63;;
5303;SDS011;2674;49.722;10.892;2022-08-19T04:49:45;56.40;;;33.10;;
5303;SDS011;2674;49.722;10.892;2022-08-19T04:52:11;49.83;;;33.70;;
5303;SDS011;2674;49.722;10.892;2022-08-19T04:54:37;48.10;;;33.27;;
5303;SDS011;2674;49.722;10.892;2022-08-19T04:57:03;46.27;;;32.27;;
5303;SDS011;2674;49.722;10.892;2022-08-19T04:59:31;53.90;;;34.33;;
5303;SDS011;2674;49.722;10.892;2022-08-19T05:01:58;52.03;;;34.30;;
5303;SDS011;2674;49.722;10.892;2022-08-19T05:04:24;52.83;;;33.67;;
5303;SDS011;2674;49.722;10.892;2022-08-19T05:06:50;58.63;;;36.10;;
5303;SDS011;2674;49.722;10.892;2022-08-19T05:09:19;53.97;;;33.93;;
5303;SDS011;2674;49.722;10.892;2022-08-19T05:11:46;55.70;;;35.30;;
5303;SDS011;2674;49.722;10.892;2022-08-19T05:14:13;51.57;;;36.67;;
5303;SDS011;2674;49.722;10.892;2022-08-19T05:16:39;49.53;;;34.73;;
5303;SDS011;2674;49.722;10.892;2022-08-19T05:19:05;54.60;;;35.70;;
5303;SDS011;2674;49.722;10.892;2022-08-19T05:21:49;46.10;;;32.87;;
5303;SDS011;2674;49.722;10.892;2022-08-19T05:24:34;61.40;;;40.00;;
5303;SDS011;2674;49.722;10.892;2022-08-19T05:27:01;57.60;;;38.10;;
5303;SDS011;2674;49.722;10.892;2022-08-19T05:29:28;56.00;;;35.57;;
5303;SDS011;2674;49.722;10.892;2022-08-19T05:31:57;56.00;;;37.30;;
5303;SDS011;2674;49.722;10.892;2022-08-19T05:34:24;59.97;;;40.43;;
5303;SDS011;2674;49.722;10.892;2022-08-19T05:36:52;50.43;;;36.03;;
5303;SDS011;2674;49.722;10.892;2022-08-19T05:39:22;56.63;;;35.23;;
5303;SDS011;2674;49.722;10.892;2022-08-19T05:41:55;51.83;;;36.80;;
5303;SDS011;2674;49.722;10.892;2022-08-19T05:44:26;55.43;;;35.90;;
5303;SDS011;2674;49.722;10.892;2022-08-19T05:46:58;53.90;;;36.23;;
5303;SDS011;2674;49.722;10.892;2022-08-19T05:49:24;50.87;;;35.80;;
5303;SDS011;2674;49.722;10.892;2022-08-19T05:51:52;47.93;;;33.47;;
5303;SDS011;2674;49.722;10.892;2022-08-19T05:54:18;55.77;;;36.90;;
5303;SDS011;2674;49.722;10.892;2022-08-19T05:56:44;51.10;;;35.20;;
5303;SDS011;2674;49.722;10.892;2022-08-19T05:59:14;46.30;;;33.47;;
5303;SDS011;2674;49.722;10.892;2022-08-19T06:01:42;58.90;;;36.90;;
5303;SDS011;2674;49.722;10.892;2022-08-19T06:04:09;54.07;;;36.90;;
5303;SDS011;2674;49.722;10.892;2022-08-19T06:06:36;53.03;;;37.30;;
5303;SDS011;2674;49.722;10.892;2022-08-19T06:09:06;55.40;;;33.40;;
5303;SDS011;2674;49.722;10.892;2022-08-19T06:11:40;59.17;;;33.53;;
5303;SDS011;2674;49.722;10.892;2022-08-19T06:14:16;47.80;;;33.63;;
5303;SDS011;2674;49.722;10.892;2022-08-19T06:16:44;48.20;;;34.57;;
5303;SDS011;2674;49.722;10.892;2022-08-19T06:19:15;46.57;;;32.27;;
5303;SDS011;2674;49.722;10.892;2022-08-19T06:21:44;48.40;;;33.80;;
5303;SDS011;2674;49.722;10.892;2022-08-19T06:24:13;50.73;;;33.83;;
5303;SDS011;2674;49.722;10.892;2022-08-19T06:26:41;45.53;;;32.33;;
5303;SDS011;2674;49.722;10.892;2022-08-19T06:29:11;50.67;;;33.70;;
5303;SDS011;2674;49.722;10.892;2022-08-19T06:31:41;46.80;;;34.00;;
5303;SDS011;2674;49.722;10.892;2022-08-19T06:34:12;50.30;;;33.67;;
5303;SDS011;2674;49.722;10.892;2022-08-19T06:36:40;54.73;;;33.10;;
5303;SDS011;2674;49.722;10.892;2022-08-19T06:39:27;48.30;;;33.87;;
5303;SDS011;2674;49.722;10.892;2022-08-19T06:41:59;47.37;;;33.27;;
5303;SDS011;2674;49.722;10.892;2022-08-19T06:44:27;49.20;;;32.90;;
5303;SDS011;2674;49.722;10.892;2022-08-19T06:46:54;45.80;;;31.63;;
5303;SDS011;2674;49.722;10.892;2022-08-19T06:49:21;41.53;;;31.63;;
5303;SDS011;2674;49.722;10.892;2022-08-19T06:51:48;46.70;;;31.40;;
5303;SDS011;2674;49.722;10.892;2022-08-19T06:54:15;37.87;;;28.03;;
5303;SDS011;2674;49.722;10.892;2022-08-19T06:56:43;41.57;;;30.00;;
5303;SDS011;2674;49.722;10.892;2022-08-19T06:59:11;43.50;;;30.10;;
5303;SDS011;2674;49.722;10.892;2022-08-19T07:01:43;41.13;;;30.50;;
5303;SDS011;2674;49.722;10.892;2022-08-19T07:04:12;43.80;;;29.97;;
5303;SDS011;2674;49.722;10.892;2022-08-19T07:06:40;41.47;;;29.00;;
5303;SDS011;2674;49.722;10.892;2022-08-19T07:09:11;43.70;;;30.93;;
5303;SDS011;2674;49.722;10.892;2022-08-19T07:11:44;40.30;;;29.03;;
5303;SDS011;2674;49.722;10.892;2022-08-19T07:14:12;39.20;;;28.70;;
5303;SDS011;2674;49.722;10.892;2022-08-19T07:16:41;42.00;;;29.60;;
5303;SDS011;2674;49.722;10.892;2022-08-19T07:19:06;40.10;;;28.70;;
5303;SDS011;2674;49.722;10.892;2022-08-19T07:21:32;40.00;;;29.90;;
5303;SDS011;2674;49.722;10.892;2022-08-19T07:24:00;40.70;;;28.90;;
5303;SDS011;2674;49.722;10.892;2022-08-19T07:26:28;42.77;;;29.50;;
5303;SDS011;2674;49.722;10.892;2022-08-19T07:28:58;40.50;;;28.33;;
5303;SDS011;2674;49.722;10.892;2022-08-19T07:31:27;42.93;;;31.73;;
5303;SDS011;2674;49.722;10.892;2022-08-19T07:33:54;41.03;;;28.63;;
5303;SDS011;2674;49.722;10.892;2022-08-19T07:36:26;40.73;;;30.10;;
5303;SDS011;2674;49.722;10.892;2022-08-19T07:38:57;40.40;;;29.37;;
5303;SDS011;2674;49.722;10.892;2022-08-19T07:41:25;37.70;;;27.43;;
5303;SDS011;2674;49.722;10.892;2022-08-19T07:43:53;41.77;;;30.20;;
5303;SDS011;2674;49.722;10.892;2022-08-19T07:46:20;50.40;;;28.47;;
5303;SDS011;2674;49.722;10.892;2022-08-19T07:48:47;36.80;;;26.43;;
5303;SDS011;2674;49.722;10.892;2022-08-19T07:51:16;36.10;;;27.33;;
5303;SDS011;2674;49.722;10.892;2022-08-19T07:53:44;36.90;;;28.20;;
5303;SDS011;2674;49.722;10.892;2022-08-19T07:56:12;41.93;;;26.97;;
5303;SDS011;2674;49.722;10.892;2022-08-19T07:58:40;38.40;;;27.47;;
5303;SDS011;2674;49.722;10.892;2022-08-19T08:01:08;40.30;;;27.93;;
5303;SDS011;2674;49.722;10.892;2022-08-19T08:03:39;37.60;;;25.83;;
5303;SDS011;2674;49.722;10.892;2022-08-19T08:06:23;36.37;;;26.77;;
5303;SDS011;2674;49.722;10.892;2022-08-19T08:09:08;35.63;;;26.00;;
5303;SDS011;2674;49.722;10.892;2022-08-19T08:11:46;35.17;;;25.63;;
5303;SDS011;2674;49.722;10.892;2022-08-19T08:14:23;33.87;;;25.20;;
5303;SDS011;2674;49.722;10.892;2022-08-19T08:16:51;36.23;;;25.70;;
5303;SDS011;2674;49.722;10.892;2022-08-19T08:19:21;35.77;;;27.80;;
5303;SDS011;2674;49.722;10.892;2022-08-19T08:21:48;34.17;;;25.13;;
5303;SDS011;2674;49.722;10.892;2022-08-19T08:24:15;34.60;;;24.10;;
5303;SDS011;2674;49.722;10.892;2022-08-19T08:26:42;29.27;;;21.33;;
5303;SDS011;2674;49.722;10.892;2022-08-19T08:29:10;31.53;;;23.47;;
5303;SDS011;2674;49.722;10.892;2022-08-19T08:31:37;33.83;;;24.27;;
5303;SDS011;2674;49.722;10.892;2022-08-19T08:34:07;31.63;;;23.57;;
5303;SDS011;2674;49.722;10.892;2022-08-19T08:36:42;29.20;;;22.20;;
5303;SDS011;2674;49.722;10.892;2022-08-19T08:39:11;30.30;;;23.10;;
5303;SDS011;2674;49.722;10.892;2022-08-19T08:44:22;27.90;;;21.40;;
5303;SDS011;2674;49.722;10.892;2022-08-19T08:46:55;24.90;;;21.27;;
5303;SDS011;2674;49.722;10.892;2022-08-19T08:49:35;31.20;;;22.00;;
5303;SDS011;2674;49.722;10.892;2022-08-19T08:52:05;25.57;;;21.50;;
5303;SDS011;2674;49.722;10.892;2022-08-19T08:54:37;23.90;;;20.90;;
5303;SDS011;2674;49.722;10.892;2022-08-19T08:57:27;24.67;;;19.67;;
5303;SDS011;2674;49.722;10.892;2022-08-19T08:59:53;27.00;;;20.37;;
5303;SDS011;2674;49.722;10.892;2022-08-19T09:02:22;27.80;;;20.23;;
5303;SDS011;2674;49.722;10.892;2022-08-19T09:04:47;24.37;;;20.73;;
5303;SDS011;2674;49.722;10.892;2022-08-19T09:10:10;26.80;;;19.50;;
5303;SDS011;2674;49.722;10.892;2022-08-19T09:15:25;23.83;;;17.30;;
5303;SDS011;2674;49.722;10.892;2022-08-19T09:18:02;25.27;;;19.73;;
5303;SDS011;2674;49.722;10.892;2022-08-19T09:20:28;23.83;;;19.60;;
5303;SDS011;2674;49.722;10.892;2022-08-19T09:22:56;24.03;;;19.30;;
5303;SDS011;2674;49.722;10.892;2022-08-19T09:25:24;23.30;;;18.37;;
5303;SDS011;2674;49.722;10.892;2022-08-19T09:27:51;25.57;;;17.60;;
5303;SDS011;2674;49.722;10.892;2022-08-19T09:30:23;19.93;;;17.60;;
5303;SDS011;2674;49.722;10.892;2022-08-19T09:32:50;20.87;;;17.83;;
5303;SDS011;2674;49.722;10.892;2022-08-19T09:35:23;23.83;;;17.67;;
5303;SDS011;2674;49.722;10.892;2022-08-19T09:37:51;24.67;;;17.00;;
5303;SDS011;2674;49.722;10.892;2022-08-19T09:40:17;20.20;;;16.57;;
5303;SDS011;2674;49.722;10.892;2022-08-19T09:42:44;23.87;;;17.80;;
5303;SDS011;2674;49.722;10.892;2022-08-19T09:45:15;24.83;;;17.67;;
5303;SDS011;2674;49.722;10.892;2022-08-19T09:47:43;20.77;;;18.53;;
5303;SDS011;2674;49.722;10.892;2022-08-19T09:50:09;22.80;;;17.77;;
5303;SDS011;2674;49.722;10.892;2022-08-19T09:52:37;23.40;;;17.20;;
5303;SDS011;2674;49.722;10.892;2022-08-19T09:55:04;21.67;;;17.50;;
5303;SDS011;2674;49.722;10.892;2022-08-19T09:57:31;21.60;;;18.30;;
5303;SDS011;2674;49.722;10.892;2022-08-19T09:59:57;21.83;;;17.17;;
5303;SDS011;2674;49.722;10.892;2022-08-19T10:02:23;22.97;;;16.30;;
5303;SDS011;2674;49.722;10.892;2022-08-19T10:04:50;22.33;;;17.53;;
5303;SDS011;2674;49.722;10.892;2022-08-19T10:07:35;18.80;;;16.53;;
5303;SDS011;2674;49.722;10.892;2022-08-19T10:10:03;21.50;;;16.83;;
5303;SDS011;2674;49.722;10.892;2022-08-19T10:12:31;18.33;;;16.37;;
5303;SDS011;2674;49.722;10.892;2022-08-19T10:14:58;19.70;;;16.27;;
5303;SDS011;2674;49.722;10.892;2022-08-19T10:17:25;14.50;;;13.00;;
5303;SDS011;2674;49.722;10.892;2022-08-19T10:19:51;20.33;;;14.50;;
5303;SDS011;2674;49.722;10.892;2022-08-19T10:22:18;15.10;;;13.70;;
5303;SDS011;2674;49.722;10.892;2022-08-19T10:24:47;16.43;;;14.70;;
5303;SDS011;2674;49.722;10.892;2022-08-19T10:27:14;15.17;;;13.63;;
5303;SDS011;2674;49.722;10.892;2022-08-19T10:29:40;15.77;;;12.77;;
5303;SDS011;2674;49.722;10.892;2022-08-19T10:32:07;16.20;;;13.83;;
5303;SDS011;2674;49.722;10.892;2022-08-19T10:34:34;15.47;;;13.40;;
5303;SDS011;2674;49.722;10.892;2022-08-19T10:37:02;15.47;;;13.87;;
5303;SDS011;2674;49.722;10.892;2022-08-19T10:39:32;17.97;;;13.50;;
5303;SDS011;2674;49.722;10.892;2022-08-19T10:42:03;15.93;;;14.33;;
5303;SDS011;2674;49.722;10.892;2022-08-19T10:44:35;16.90;;;15.03;;
5303;SDS011;2674;49.722;10.892;2022-08-19T10:47:02;18.60;;;16.20;;
5303;SDS011;2674;49.722;10.892;2022-08-19T10:49:29;19.40;;;14.33;;
5303;SDS011;2674;49.722;10.892;2022-08-19T10:51:57;17.63;;;15.83;;
5303;SDS011;2674;49.722;10.892;2022-08-19T10:54:41;17.20;;;15.40;;
5303;SDS011;2674;49.722;10.892;2022-08-19T10:57:29;17.53;;;15.13;;
5303;SDS011;2674;49.722;10.892;2022-08-19T10:59:56;17.57;;;15.67;;
5303;SDS011;2674;49.722;10.892;2022-08-19T11:02:22;20.03;;;17.87;;
5303;SDS011;2674;49.722;10.892;2022-08-19T11:04:48;18.17;;;15.57;;
5303;SDS011;2674;49.722;10.892;2022-08-19T11:07:16;18.67;;;15.97;;
5303;SDS011;2674;49.722;10.892;2022-08-19T11:09:42;19.10;;;15.37;;
5303;SDS011;2674;49.722;10.892;2022-08-19T11:12:08;24.10;;;15.63;;
5303;SDS011;2674;49.722;10.892;2022-08-19T11:14:35;23.23;;;17.20;;
5303;SDS011;2674;49.722;10.892;2022-08-19T11:17:02;23.13;;;18.07;;
5303;SDS011;2674;49.722;10.892;2022-08-19T11:19:29;21.53;;;17.43;;
5303;SDS011;2674;49.722;10.892;2022-08-19T11:21:56;19.63;;;17.03;;
5303;SDS011;2674;49.722;10.892;2022-08-19T11:24:23;19.70;;;17.60;;
5303;SDS011;2674;49.722;10.892;2022-08-19T11:26:51;25.40;;;18.37;;
5303;SDS011;2674;49.722;10.892;2022-08-19T11:29:22;22.53;;;17.73;;
5303;SDS011;2674;49.722;10.892;2022-08-19T11:31:53;23.80;;;17.53;;
5303;SDS011;2674;49.722;10.892;2022-08-19T11:34:21;29.10;;;18.37;;
5303;SDS011;2674;49.722;10.892;2022-08-19T11:57:22;24.17;;;16.70;;
5303;SDS011;2674;49.722;10.892;2022-08-19T11:59:49;19.77;;;17.40;;
5303;SDS011;2674;49.722;10.892;2022-08-19T12:02:16;23.60;;;17.40;;
5303;SDS011;2674;49.722;10.892;2022-08-19T12:04:42;20.00;;;17.60;;
5303;SDS011;2674;49.722;10.892;2022-08-19T12:07:08;19.43;;;17.30;;
5303;SDS011;2674;49.722;10.892;2022-08-19T12:09:34;20.90;;;18.80;;
5303;SDS011;2674;49.722;10.892;2022-08-19T12:12:00;23.63;;;18.93;;
5303;SDS011;2674;49.722;10.892;2022-08-19T12:14:27;18.67;;;16.60;;
5303;SDS011;2674;49.722;10.892;2022-08-19T12:16:55;29.23;;;20.23;;
5303;SDS011;2674;49.722;10.892;2022-08-19T12:19:21;25.00;;;17.60;;
5303;SDS011;2674;49.722;10.892;2022-08-19T12:21:48;22.23;;;17.73;;
5303;SDS011;2674;49.722;10.892;2022-08-19T12:24:14;21.33;;;17.57;;
5303;SDS011;2674;49.722;10.892;2022-08-19T12:26:40;21.07;;;19.07;;
5303;SDS011;2674;49.722;10.892;2022-08-19T12:29:07;20.27;;;17.63;;
5303;SDS011;2674;49.722;10.892;2022-08-19T12:31:33;20.00;;;17.13;;
5303;SDS011;2674;49.722;10.892;2022-08-19T12:33:59;19.90;;;17.90;;
5303;SDS011;2674;49.722;10.892;2022-08-19T12:36:26;24.17;;;19.83;;
5303;SDS011;2674;49.722;10.892;2022-08-19T12:38:52;24.67;;;21.20;;
5303;SDS011;2674;49.722;10.892;2022-08-19T12:41:18;24.60;;;19.97;;
5303;SDS011;2674;49.722;10.892;2022-08-19T12:43:46;22.03;;;19.73;;
5303;SDS011;2674;49.722;10.892;2022-08-19T12:46:14;34.07;;;21.67;;
5303;SDS011;2674;49.722;10.892;2022-08-19T12:48:40;25.57;;;21.50;;
5303;SDS011;2674;49.722;10.892;2022-08-19T12:51:07;25.00;;;21.87;;
5303;SDS011;2674;49.722;10.892;2022-08-19T12:53:35;29.67;;;21.13;;
5303;SDS011;2674;49.722;10.892;2022-08-19T12:56:01;26.13;;;22.20;;
5303;SDS011;2674;49.722;10.892;2022-08-19T12:58:27;25.50;;;22.57;;
5303;SDS011;2674;49.722;10.892;2022-08-19T13:00:53;24.33;;;21.40;;
5303;SDS011;2674;49.722;10.892;2022-08-19T13:03:19;27.40;;;20.90;;
5303;SDS011;2674;49.722;10.892;2022-08-19T13:05:50;25.60;;;18.00;;
5303;SDS011;2674;49.722;10.892;2022-08-19T13:08:16;33.83;;;21.07;;
5303;SDS011;2674;49.722;10.892;2022-08-19T13:10:42;20.93;;;18.70;;
5303;SDS011;2674;49.722;10.892;2022-08-19T13:13:08;23.43;;;19.73;;
5303;SDS011;2674;49.722;10.892;2022-08-19T13:15:38;16.83;;;12.50;;
5303;SDS011;2674;49.722;10.892;2022-08-19T13:18:06;21.87;;;13.63;;
5303;SDS011;2674;49.722;10.892;2022-08-19T13:20:34;21.67;;;12.57;;
5303;SDS011;2674;49.722;10.892;2022-08-19T13:23:00;21.03;;;15.60;;
5303;SDS011;2674;49.722;10.892;2022-08-19T13:25:26;19.43;;;14.43;;
5303;SDS011;2674;49.722;10.892;2022-08-19T13:27:52;17.30;;;12.47;;
5303;SDS011;2674;49.722;10.892;2022-08-19T13:30:20;17.83;;;13.43;;
5303;SDS011;2674;49.722;10.892;2022-08-19T13:33:04;15.47;;;13.87;;
5303;SDS011;2674;49.722;10.892;2022-08-19T13:35:45;18.60;;;15.77;;
5303;SDS011;2674;49.722;10.892;2022-08-19T13:38:13;19.07;;;16.00;;
5303;SDS011;2674;49.722;10.892;2022-08-19T13:40:41;22.23;;;17.83;;
5303;SDS011;2674;49.722;10.892;2022-08-19T13:43:07;18.63;;;16.53;;
5303;SDS011;2674;49.722;10.892;2022-08-19T13:45:34;23.83;;;15.93;;
5303;SDS011;2674;49.722;10.892;2022-08-19T13:48:01;16.80;;;13.80;;
5303;SDS011;2674;49.722;10.892;2022-08-19T13:50:34;16.93;;;11.57;;
5303;SDS011;2674;49.722;10.892;2022-08-19T13:53:05;13.67;;;11.70;;
5303;SDS011;2674;49.722;10.892;2022-08-19T13:55:31;13.57;;;10.53;;
5303;SDS011;2674;49.722;10.892;2022-08-19T13:57:58;17.93;;;12.43;;
5303;SDS011;2674;49.722;10.892;2022-08-19T14:00:28;11.97;;;10.73;;
5303;SDS011;2674;49.722;10.892;2022-08-19T14:02:56;12.47;;;9.07;;
5303;SDS011;2674;49.722;10.892;2022-08-19T14:05:22;10.50;;;9.47;;
5303;SDS011;2674;49.722;10.892;2022-08-19T14:07:49;12.10;;;8.83;;
5303;SDS011;2674;49.722;10.892;2022-08-19T14:10:15;9.83;;;8.43;;
5303;SDS011;2674;49.722;10.892;2022-08-19T14:12:42;7.83;;;7.13;;
5303;SDS011;2674;49.722;10.892;2022-08-19T14:15:09;8.97;;;7.87;;
5303;SDS011;2674;49.722;10.892;2022-08-19T14:17:39;11.73;;;7.83;;
5303;SDS011;2674;49.722;10.892;2022-08-19T14:20:06;9.03;;;7.23;;
5303;SDS011;2674;49.722;10.892;2022-08-19T14:22:35;8.70;;;7.90;;
5303;SDS011;2674;49.722;10.892;2022-08-19T14:25:02;9.30;;;8.40;;
5303;SDS011;2674;49.722;10.892;2022-08-19T14:27:30;10.00;;;8.87;;
5303;SDS011;2674;49.722;10.892;2022-08-19T14:29:58;9.43;;;8.30;;
5303;SDS011;2674;49.722;10.892;2022-08-19T14:32:24;9.80;;;8.60;;
5303;SDS011;2674;49.722;10.892;2022-08-19T14:34:52;10.57;;;8.97;;
5303;SDS011;2674;49.722;10.892;2022-08-19T14:37:19;12.50;;;8.20;;
5303;SDS011;2674;49.722;10.892;2022-08-19T14:39:47;10.20;;;8.73;;
5303;SDS011;2674;49.722;10.892;2022-08-19T14:42:13;13.97;;;10.60;;
5303;SDS011;2674;49.722;10.892;2022-08-19T14:44:40;17.20;;;9.07;;
5303;SDS011;2674;49.722;10.892;2022-08-19T14:47:10;13.20;;;9.70;;
5303;SDS011;2674;49.722;10.892;2022-08-19T14:49:36;11.50;;;10.30;;
5303;SDS011;2674;49.722;10.892;2022-08-19T14:52:02;16.10;;;10.47;;
5303;SDS011;2674;49.722;10.892;2022-08-19T14:54:29;15.43;;;10.70;;
5303;SDS011;2674;49.722;10.892;2022-08-19T14:56:55;14.57;;;12.30;;
5303;SDS011;2674;49.722;10.892;2022-08-19T14:59:21;14.13;;;10.70;;
5303;SDS011;2674;49.722;10.892;2022-08-19T15:01:47;16.27;;;10.30;;
5303;SDS011;2674;49.722;10.892;2022-08-19T15:04:13;12.50;;;10.60;;
5303;SDS011;2674;49.722;10.892;2022-08-19T15:06:39;16.23;;;10.70;;
5303;SDS011;2674;49.722;10.892;2022-08-19T15:09:07;11.50;;;10.33;;
5303;SDS011;2674;49.722;10.892;2022-08-19T15:11:34;12.17;;;10.97;;
5303;SDS011;2674;49.722;10.892;2022-08-19T15:14:01;10.57;;;9.60;;
5303;SDS011;2674;49.722;10.892;2022-08-19T15:16:27;10.97;;;9.50;;